createdAt,value
2018-05-17T00:01:50.078Z,18.88
2018-05-17T00:04:20.114Z,18.89
2018-05-17T00:06:46.841Z,18.85
2018-05-17T00:09:13.475Z,18.84
2018-05-17T00:11:40.057Z,18.93
2018-05-17T00:14:12.988Z,18.95
2018-05-17T00:16:39.857Z,18.94
2018-05-17T00:19:06.504Z,18.96
2018-05-17T00:21:33.123Z,19.05
2018-05-17T00:24:04.864Z,19.04
2018-05-17T00:26:32.025Z,19.11
2018-05-17T00:28:58.657Z,18.97
2018-05-17T00:31:25.413Z,18.97
2018-05-17T00:33:59.118Z,18.92
2018-05-17T00:36:25.824Z,18.86
2018-05-17T00:38:52.515Z,18.82
2018-05-17T00:41:19.278Z,18.82
2018-05-17T00:43:47.183Z,18.87
2018-05-17T00:46:13.746Z,18.83
2018-05-17T00:48:40.280Z,18.90
2018-05-17T00:51:07.719Z,18.92
2018-05-17T00:53:35.381Z,18.91
2018-05-17T00:56:02.075Z,18.88
2018-05-17T00:58:28.753Z,18.82
2018-05-17T01:00:55.417Z,18.80
2018-05-17T01:03:25.338Z,18.73
2018-05-17T01:05:52.297Z,18.73
2018-05-17T01:08:18.891Z,18.66
2018-05-17T01:10:45.655Z,18.70
2018-05-17T01:13:16.295Z,18.68
2018-05-17T01:15:43.330Z,18.75
2018-05-17T01:18:10.044Z,18.76
2018-05-17T01:20:36.592Z,18.72
2018-05-17T01:23:03.400Z,18.75
2018-05-17T01:25:30.172Z,18.74
2018-05-17T01:27:56.810Z,18.78
2018-05-17T01:30:23.357Z,18.52
2018-05-17T01:32:50.012Z,18.41
2018-05-17T01:35:16.697Z,18.33
2018-05-17T01:37:55.897Z,18.33
2018-05-17T01:40:22.558Z,18.33
2018-05-17T01:42:49.322Z,18.29
2018-05-17T01:45:15.957Z,18.08
2018-05-17T01:47:42.634Z,18.28
2018-05-17T01:50:09.280Z,18.23
2018-05-17T01:52:36.530Z,18.28
2018-05-17T01:55:04.311Z,18.16
2018-05-17T01:57:31.009Z,18.10
2018-05-17T01:59:57.700Z,18.09
2018-05-17T02:02:24.335Z,18.09
2018-05-17T02:05:01.194Z,18.01
2018-05-17T02:07:28.030Z,18.07
2018-05-17T02:09:54.682Z,17.98
2018-05-17T02:12:21.301Z,17.77
2018-05-17T02:14:51.392Z,17.69
2018-05-17T02:17:18.084Z,17.69
2018-05-17T02:19:44.791Z,17.91
2018-05-17T02:22:11.378Z,17.99
2018-05-17T02:24:42.598Z,17.87
2018-05-17T02:27:09.154Z,17.83
2018-05-17T02:29:35.792Z,17.65
2018-05-17T02:32:02.327Z,17.71
2018-05-17T02:34:30.677Z,17.67
2018-05-17T02:36:57.457Z,17.70
2018-05-17T02:39:24.747Z,17.75
2018-05-17T02:41:51.456Z,17.72
2018-05-17T02:44:19.432Z,17.69
2018-05-17T02:46:46.058Z,17.71
2018-05-17T02:49:12.804Z,17.75
2018-05-17T02:51:39.330Z,17.73
2018-05-17T02:54:22.857Z,17.74
2018-05-17T02:56:49.433Z,17.81
2018-05-17T02:59:16.158Z,17.84
2018-05-17T03:01:43.204Z,17.81
2018-05-17T03:04:13.755Z,17.82
2018-05-17T03:06:40.330Z,17.85
2018-05-17T03:09:06.961Z,17.96
2018-05-17T03:11:33.632Z,18.06
2018-05-17T03:14:03.864Z,18.05
2018-05-17T03:16:30.781Z,17.99
2018-05-17T03:18:57.470Z,18.04
2018-05-17T03:21:24.862Z,18.05
2018-05-17T03:23:52.673Z,17.91
2018-05-17T03:26:19.962Z,18.02
2018-05-17T03:28:46.595Z,18.11
2018-05-17T03:31:13.198Z,18.08
2018-05-17T03:33:43.902Z,18.03
2018-05-17T03:36:10.582Z,18.07
2018-05-17T03:38:37.308Z,18.03
2018-05-17T03:41:04.046Z,18.01
2018-05-17T03:43:30.738Z,18.11
2018-05-17T03:45:58.050Z,18.07
2018-05-17T03:48:25.665Z,18.15
2018-05-17T03:50:52.304Z,18.27
2018-05-17T03:53:18.906Z,18.18
2018-05-17T03:55:45.782Z,18.17
2018-05-17T03:58:12.697Z,18.19
2018-05-17T04:00:51.304Z,18.22
2018-05-17T04:03:33.573Z,18.30
2018-05-17T04:06:12.098Z,18.36
2018-05-17T04:08:38.926Z,18.40
2018-05-17T04:11:05.788Z,18.38
2018-05-17T04:13:36.117Z,18.40
2018-05-17T04:16:02.878Z,18.41
2018-05-17T04:18:29.564Z,18.48
2018-05-17T04:20:56.284Z,18.48
2018-05-17T04:23:23.085Z,18.46
2018-05-17T04:25:49.817Z,18.48
2018-05-17T04:28:16.420Z,18.50
2018-05-17T04:30:43.665Z,18.60
2018-05-17T04:33:16.984Z,18.65
2018-05-17T04:35:43.736Z,18.73
2018-05-17T04:38:10.300Z,18.72
2018-05-17T04:40:36.993Z,18.78
2018-05-17T04:43:03.777Z,18.85
2018-05-17T04:45:30.532Z,18.95
2018-05-17T04:47:57.396Z,19.09
2018-05-17T04:50:24.092Z,19.16
2018-05-17T04:52:54.681Z,19.26
2018-05-17T04:55:21.877Z,19.35
2018-05-17T04:57:48.592Z,19.56
2018-05-17T05:00:15.244Z,19.69
2018-05-17T05:02:48.592Z,19.89
2018-05-17T05:05:15.375Z,20.06
2018-05-17T05:07:42.221Z,20.07
2018-05-17T05:10:09.181Z,20.20
2018-05-17T05:12:37.096Z,20.34
2018-05-17T05:15:04.321Z,20.63
2018-05-17T05:17:31.468Z,20.92
2018-05-17T05:19:58.059Z,20.70
2018-05-17T05:22:28.253Z,21.00
2018-05-17T05:24:55.984Z,21.23
2018-05-17T05:27:22.654Z,20.95
2018-05-17T05:29:49.560Z,21.14
2018-05-17T05:32:16.167Z,21.42
2018-05-17T05:34:42.846Z,21.37
2018-05-17T05:37:09.540Z,21.04
2018-05-17T05:39:36.625Z,21.46
2018-05-17T05:42:03.277Z,21.46
2018-05-17T05:44:34.090Z,22.01
2018-05-17T05:47:01.215Z,21.79
2018-05-17T05:49:28.679Z,21.79
2018-05-17T05:51:55.617Z,22.36
2018-05-17T05:54:37.120Z,22.24
2018-05-17T05:57:04.357Z,22.47
2018-05-17T05:59:31.304Z,22.51
2018-05-17T06:01:58.505Z,22.48
2018-05-17T06:04:39.701Z,22.39
2018-05-17T06:07:06.477Z,22.39
2018-05-17T06:09:33.421Z,22.87
2018-05-17T06:12:00.372Z,23.17
2018-05-17T06:14:32.434Z,23.30
2018-05-17T06:16:59.634Z,23.74
2018-05-17T06:19:26.582Z,23.93
2018-05-17T06:21:54.037Z,23.72
2018-05-17T06:24:25.260Z,23.44
2018-05-17T06:26:53.080Z,23.65
2018-05-17T06:29:19.994Z,23.62
2018-05-17T06:31:47.450Z,23.88
2018-05-17T06:34:17.730Z,24.14
2018-05-17T06:36:44.671Z,24.10
2018-05-17T06:39:26.466Z,24.37
2018-05-17T06:41:53.921Z,24.38
2018-05-17T06:44:25.802Z,24.13
2018-05-17T06:46:52.678Z,24.23
2018-05-17T06:49:19.875Z,24.43
2018-05-17T06:51:46.826Z,24.02
2018-05-17T06:54:13.702Z,24.51
2018-05-17T06:56:41.274Z,23.92
2018-05-17T06:59:08.428Z,24.00
2018-05-17T07:01:35.374Z,24.34
2018-05-17T07:04:03.453Z,24.63
2018-05-17T07:06:31.054Z,24.16
2018-05-17T07:08:57.726Z,23.79
2018-05-17T07:11:24.464Z,23.70
2018-05-17T07:13:51.107Z,23.62
2018-05-17T07:16:17.781Z,23.86
2018-05-17T07:18:45.238Z,23.77
2018-05-17T07:21:12.094Z,23.93
2018-05-17T07:23:45.138Z,24.00
2018-05-17T07:26:11.867Z,23.75
2018-05-17T07:28:38.527Z,23.80
2018-05-17T07:31:05.128Z,23.63
2018-05-17T07:33:32.730Z,23.63
2018-05-17T07:35:59.438Z,23.80
2018-05-17T07:38:26.156Z,23.91
2018-05-17T07:40:52.906Z,23.79
2018-05-17T07:43:23.182Z,23.97
2018-05-17T07:45:50.069Z,23.17
2018-05-17T07:48:16.747Z,24.03
2018-05-17T07:50:43.244Z,24.33
2018-05-17T07:53:21.183Z,24.28
2018-05-17T07:55:48.509Z,24.06
2018-05-17T07:58:15.106Z,24.58
2018-05-17T08:00:41.844Z,24.39
2018-05-17T08:03:16.936Z,24.99
2018-05-17T08:05:43.684Z,25.33
2018-05-17T08:08:10.415Z,24.62
2018-05-17T08:10:37.130Z,24.35
2018-05-17T08:13:14.417Z,24.40
2018-05-17T08:15:41.454Z,23.83
2018-05-17T08:18:08.653Z,24.33
2018-05-17T08:20:35.344Z,24.52
2018-05-17T08:23:08.938Z,24.49
2018-05-17T08:25:35.670Z,23.84
2018-05-17T08:28:02.187Z,23.78
2018-05-17T08:30:29.354Z,23.73
2018-05-17T08:33:07.025Z,23.90
2018-05-17T08:35:33.807Z,23.79
2018-05-17T08:38:00.857Z,23.73
2018-05-17T08:40:27.590Z,23.55
2018-05-17T08:45:51.332Z,23.48
2018-05-17T08:48:18.018Z,23.35
2018-05-17T08:50:44.674Z,23.13
2018-05-17T08:53:15.226Z,22.83
2018-05-17T08:55:41.846Z,22.87
2018-05-17T08:58:08.488Z,22.50
2018-05-17T09:00:35.215Z,22.44
2018-05-17T09:03:02.900Z,22.64
2018-05-17T09:05:29.605Z,22.31
2018-05-17T09:07:56.420Z,22.22
2018-05-17T09:10:23.086Z,22.01
2018-05-17T09:12:53.013Z,21.69
2018-05-17T09:15:20.022Z,21.78
2018-05-17T09:17:46.740Z,21.56
2018-05-17T09:20:13.529Z,21.61
2018-05-17T09:22:47.063Z,21.45
2018-05-17T09:25:14.056Z,21.76
2018-05-17T09:27:40.605Z,21.55
2018-05-17T09:30:07.261Z,21.62
2018-05-17T09:32:37.070Z,21.83
2018-05-17T09:35:03.678Z,22.32
2018-05-17T09:37:30.274Z,22.43
2018-05-17T09:39:56.805Z,23.40
2018-05-17T09:42:28.515Z,23.27
2018-05-17T09:44:55.444Z,23.33
2018-05-17T09:47:22.140Z,22.70
2018-05-17T09:49:48.797Z,22.92
2018-05-17T09:52:16.508Z,22.85
2018-05-17T09:54:43.229Z,22.06
2018-05-17T09:57:09.821Z,22.19
2018-05-17T09:59:36.466Z,22.87
2018-05-17T10:02:08.858Z,22.89
2018-05-17T10:04:35.494Z,23.23
2018-05-17T10:07:02.248Z,22.98
2018-05-17T10:09:28.851Z,22.86
2018-05-17T10:12:02.040Z,22.87
2018-05-17T10:14:28.742Z,23.32
2018-05-17T10:16:55.462Z,23.41
2018-05-17T10:19:22.200Z,23.34
2018-05-17T10:21:52.601Z,23.20
2018-05-17T10:24:19.394Z,23.80
2018-05-17T10:26:46.083Z,23.84
2018-05-17T10:29:12.925Z,23.76
2018-05-17T10:31:39.601Z,23.15
2018-05-17T10:34:06.271Z,23.41
2018-05-17T10:36:33.026Z,23.69
2018-05-17T10:38:59.613Z,24.37
2018-05-17T10:41:26.460Z,23.80
2018-05-17T10:43:56.988Z,24.09
2018-05-17T10:46:23.619Z,23.77
2018-05-17T10:48:50.685Z,23.84
2018-05-17T10:51:17.278Z,23.62
2018-05-17T10:53:47.888Z,24.06
2018-05-17T10:56:14.547Z,23.60
2018-05-17T10:58:41.522Z,24.52
2018-05-17T11:01:08.052Z,24.67
2018-05-17T11:03:38.383Z,24.15
2018-05-17T11:06:05.005Z,24.21
2018-05-17T11:08:31.732Z,24.48
2018-05-17T11:10:58.551Z,24.73
2018-05-17T11:13:29.851Z,24.68
2018-05-17T11:15:56.750Z,25.84
2018-05-17T11:18:23.328Z,26.92
2018-05-17T11:20:50.112Z,27.68
2018-05-17T11:23:31.497Z,27.12
2018-05-17T11:25:58.235Z,28.20
2018-05-17T11:28:24.837Z,27.74
2018-05-17T11:30:51.746Z,27.15
2018-05-17T11:33:18.386Z,25.55
2018-05-17T11:35:45.021Z,26.74
2018-05-17T11:38:11.692Z,26.86
2018-05-17T11:40:38.381Z,28.13
2018-05-17T11:43:09.163Z,27.27
2018-05-17T11:45:35.975Z,27.19
2018-05-17T11:48:02.710Z,25.58
2018-05-17T11:50:29.410Z,26.11
2018-05-17T11:52:58.933Z,25.98
2018-05-17T11:55:25.570Z,26.18
2018-05-17T11:57:52.068Z,26.44
2018-05-17T12:00:18.723Z,27.96
2018-05-17T12:02:59.779Z,27.90
2018-05-17T12:05:26.422Z,28.47
2018-05-17T12:07:53.345Z,28.17
2018-05-17T12:10:20.330Z,28.04
2018-05-17T12:12:53.810Z,28.36
2018-05-17T12:15:20.451Z,26.76
2018-05-17T12:17:47.564Z,27.47
2018-05-17T12:20:14.467Z,28.86
2018-05-17T12:22:41.501Z,28.39
2018-05-17T12:25:08.237Z,28.60
2018-05-17T12:27:35.305Z,27.50
2018-05-17T12:30:02.079Z,28.30
2018-05-17T12:32:35.868Z,28.01
2018-05-17T12:35:03.001Z,27.43
2018-05-17T12:37:29.665Z,27.50
2018-05-17T12:39:56.682Z,27.29
2018-05-17T12:42:24.849Z,26.93
2018-05-17T12:44:51.606Z,26.55
2018-05-17T12:47:18.557Z,26.57
2018-05-17T12:49:45.243Z,27.58
2018-05-17T12:52:11.897Z,27.77
2018-05-17T12:54:38.941Z,27.69
2018-05-17T12:57:05.633Z,27.47
2018-05-17T12:59:32.269Z,26.91
2018-05-17T13:02:02.136Z,27.99
2018-05-17T13:04:28.874Z,28.20
2018-05-17T13:06:55.783Z,26.70
2018-05-17T13:09:22.404Z,26.27
2018-05-17T13:11:50.563Z,24.88
2018-05-17T13:14:17.203Z,25.83
2018-05-17T13:16:43.876Z,25.69
2018-05-17T13:19:10.586Z,26.71
2018-05-17T13:21:38.381Z,26.01
2018-05-17T13:24:04.939Z,26.45
2018-05-17T13:26:31.729Z,26.38
2018-05-17T13:28:58.405Z,26.61
2018-05-17T13:31:25.234Z,27.45
2018-05-17T13:33:51.958Z,28.31
2018-05-17T13:36:18.665Z,27.37
2018-05-17T13:38:45.330Z,27.10
2018-05-17T13:41:12.080Z,27.06
2018-05-17T13:43:38.657Z,26.61
2018-05-17T13:46:05.077Z,26.80
2018-05-17T13:48:31.708Z,27.90
2018-05-17T13:50:58.246Z,27.71
2018-05-17T13:53:28.659Z,27.20
2018-05-17T13:55:55.580Z,26.63
2018-05-17T13:58:22.306Z,25.88
2018-05-17T14:00:48.854Z,24.95
2018-05-17T14:03:32.937Z,24.50
2018-05-17T14:05:59.604Z,24.79
2018-05-17T14:08:26.262Z,24.51
2018-05-17T14:10:52.853Z,23.97
2018-05-17T14:13:23.190Z,23.88
2018-05-17T14:15:50.086Z,23.95
2018-05-17T14:18:17.258Z,23.79
2018-05-17T14:20:44.225Z,23.66
2018-05-17T14:23:24.387Z,23.74
2018-05-17T14:25:51.113Z,23.69
2018-05-17T14:28:17.766Z,23.56
2018-05-17T14:30:44.397Z,23.60
2018-05-17T14:33:11.286Z,23.85
2018-05-17T14:35:38.127Z,23.95
2018-05-17T14:38:04.829Z,23.47
2018-05-17T14:40:32.337Z,23.76
2018-05-17T14:42:59.989Z,23.70
2018-05-17T14:45:27.802Z,24.90
2018-05-17T14:47:54.556Z,26.73
2018-05-17T14:50:21.118Z,25.97
2018-05-17T14:52:51.678Z,24.75
2018-05-17T14:55:19.004Z,25.12
2018-05-17T14:57:45.587Z,23.95
2018-05-17T15:00:12.255Z,24.20
2018-05-17T15:02:43.782Z,25.20
2018-05-17T15:05:10.447Z,26.90
2018-05-17T15:07:37.031Z,26.19
2018-05-17T15:10:03.583Z,26.06
2018-05-17T15:12:30.626Z,24.74
2018-05-17T15:14:57.239Z,24.85
2018-05-17T15:17:23.834Z,24.65
2018-05-17T15:19:50.632Z,24.71
2018-05-17T15:22:22.838Z,24.14
2018-05-17T15:24:49.587Z,23.56
2018-05-17T15:27:16.241Z,23.17
2018-05-17T15:29:42.852Z,23.14
2018-05-17T15:32:16.898Z,22.69
2018-05-17T15:34:43.550Z,22.81
2018-05-17T15:37:10.196Z,22.66
2018-05-17T15:39:36.873Z,22.45
2018-05-17T15:42:03.858Z,22.46
2018-05-17T15:44:30.676Z,22.66
2018-05-17T15:46:57.340Z,22.56
2018-05-17T15:49:24.068Z,22.56
2018-05-17T15:51:56.430Z,22.15
2018-05-17T15:54:23.170Z,22.37
2018-05-17T15:56:49.853Z,22.30
2018-05-17T15:59:16.578Z,22.12
2018-05-17T16:01:58.153Z,21.93
2018-05-17T16:04:25.115Z,21.71
2018-05-17T16:06:51.689Z,21.69
2018-05-17T16:09:18.346Z,21.87
2018-05-17T16:11:45.055Z,21.73
2018-05-17T16:14:11.853Z,21.75
2018-05-17T16:16:38.592Z,21.64
2018-05-17T16:19:05.569Z,21.80
2018-05-17T16:21:33.431Z,21.71
2018-05-17T16:24:00.091Z,21.82
2018-05-17T16:26:27.091Z,21.65
2018-05-17T16:28:53.848Z,21.53
2018-05-17T16:31:27.745Z,21.56
2018-05-17T16:33:54.494Z,21.52
2018-05-17T16:36:21.018Z,21.62
2018-05-17T16:38:47.751Z,21.67
2018-05-17T16:41:21.320Z,21.14
2018-05-17T16:43:47.914Z,22.08
2018-05-17T16:46:14.423Z,22.56
2018-05-17T16:48:41.178Z,22.55
2018-05-17T16:51:13.424Z,22.34
2018-05-17T16:53:40.131Z,22.47
2018-05-17T16:56:08.209Z,21.69
2018-05-17T16:58:35.089Z,21.55
2018-05-17T17:01:07.602Z,21.22
2018-05-17T17:03:34.653Z,21.54
2018-05-17T17:06:01.704Z,21.33
2018-05-17T17:08:28.927Z,21.41
2018-05-17T17:11:03.721Z,21.25
2018-05-17T17:13:31.261Z,21.42
2018-05-17T17:15:58.299Z,21.99
2018-05-17T17:18:25.747Z,20.42
2018-05-17T17:20:56.440Z,19.96
2018-05-17T17:23:23.471Z,20.50
2018-05-17T17:25:50.578Z,21.32
2018-05-17T17:28:17.867Z,20.55
2018-05-17T17:30:46.048Z,20.07
2018-05-17T17:33:12.678Z,20.84
2018-05-17T17:35:39.419Z,21.23
2018-05-17T17:38:06.271Z,21.04
2018-05-17T17:40:43.753Z,21.41
2018-05-17T17:43:10.612Z,20.21
2018-05-17T17:45:37.217Z,20.87
2018-05-17T17:48:03.774Z,21.24
2018-05-17T17:50:31.509Z,20.59
2018-05-17T17:52:57.969Z,20.76
2018-05-17T17:55:24.677Z,21.08
2018-05-17T17:57:51.291Z,20.40
2018-05-17T18:00:18.365Z,20.84
2018-05-17T18:02:45.115Z,21.29
2018-05-17T18:05:11.993Z,19.82
2018-05-17T18:07:38.822Z,19.91
2018-05-17T18:10:05.529Z,20.01
2018-05-17T18:12:33.459Z,20.52
2018-05-17T18:15:00.072Z,20.71
2018-05-17T18:17:29.134Z,20.34
2018-05-17T18:19:55.941Z,20.86
2018-05-17T18:22:26.687Z,21.00
2018-05-17T18:24:53.469Z,20.55
2018-05-17T18:27:19.974Z,20.58
2018-05-17T18:29:46.639Z,20.80
2018-05-17T18:32:13.565Z,21.06
2018-05-17T18:34:40.314Z,21.04
2018-05-17T18:37:07.695Z,20.91
2018-05-17T18:39:34.391Z,20.71
2018-05-17T18:42:02.471Z,21.22
2018-05-17T18:44:29.778Z,20.08
2018-05-17T18:46:56.542Z,20.24
2018-05-17T18:49:24.149Z,20.13
2018-05-17T18:51:51.144Z,19.84
2018-05-17T18:54:17.776Z,20.48
2018-05-17T18:56:44.657Z,20.31
2018-05-17T18:59:11.266Z,20.11
2018-05-17T19:01:38.421Z,20.97
2018-05-17T19:04:05.081Z,21.24
2018-05-17T19:06:31.895Z,21.13
2018-05-17T19:08:59.346Z,20.57
2018-05-17T19:11:36.905Z,21.00
2018-05-17T19:14:04.215Z,20.71
2018-05-17T19:16:30.898Z,20.09
2018-05-17T19:18:57.566Z,20.43
2018-05-17T19:21:27.803Z,20.44
2018-05-17T19:23:54.592Z,20.35
2018-05-17T19:26:21.328Z,20.50
2018-05-17T19:28:48.383Z,20.68
2018-05-17T19:31:15.176Z,20.63
2018-05-17T19:33:41.790Z,20.47
2018-05-17T19:36:08.811Z,19.80
2018-05-17T19:38:35.572Z,20.22
2018-05-17T19:41:22.315Z,19.93
2018-05-17T19:43:48.902Z,19.80
2018-05-17T19:46:16.117Z,19.81
2018-05-17T19:48:42.791Z,19.58
2018-05-17T19:58:22.606Z,19.73
2018-05-17T20:00:49.186Z,19.36
2018-05-17T20:03:15.834Z,19.17
2018-05-17T20:05:43.178Z,19.24
2018-05-17T20:08:09.819Z,19.36
2018-05-17T20:10:36.648Z,19.17
2018-05-17T20:13:03.366Z,19.26
2018-05-17T20:15:30.294Z,19.05
2018-05-17T20:17:57.022Z,19.25
2018-05-17T20:20:23.592Z,19.26
2018-05-17T20:22:50.269Z,19.03
2018-05-17T20:25:19.211Z,19.09
2018-05-17T20:27:46.271Z,18.75
2018-05-17T20:30:12.987Z,18.67
2018-05-17T20:32:39.942Z,18.56
2018-05-17T20:35:06.871Z,18.60
2018-05-17T20:37:33.550Z,18.71
2018-05-17T20:40:00.267Z,18.74
2018-05-17T20:42:26.876Z,18.61
2018-05-17T20:44:54.082Z,18.78
2018-05-17T20:47:20.708Z,18.78
2018-05-17T20:49:47.843Z,18.79
2018-05-17T20:52:15.183Z,18.70
2018-05-17T20:54:42.990Z,18.51
2018-05-17T20:57:09.869Z,18.59
2018-05-17T20:59:36.560Z,18.84
2018-05-17T21:02:03.183Z,18.92
2018-05-17T21:04:35.902Z,18.83
2018-05-17T21:07:02.533Z,18.51
2018-05-17T21:09:29.165Z,18.25
2018-05-17T21:11:55.904Z,18.34
2018-05-17T21:14:22.693Z,18.41
2018-05-17T21:16:49.426Z,18.43
2018-05-17T21:19:16.269Z,18.35
2018-05-17T21:21:43.225Z,18.72
2018-05-17T21:24:14.430Z,18.17
2018-05-17T21:26:41.482Z,18.22
2018-05-17T21:29:08.318Z,18.31
2018-05-17T21:31:35.021Z,18.34
2018-05-17T21:34:02.843Z,18.52
2018-05-17T21:36:29.429Z,18.43
2018-05-17T21:38:56.163Z,18.30
2018-05-17T21:41:22.790Z,18.08
2018-05-17T21:43:49.530Z,18.09
2018-05-17T21:46:16.753Z,18.23
2018-05-17T21:48:43.453Z,18.10
2018-05-17T21:51:10.058Z,18.06
2018-05-17T21:53:37.838Z,17.85
2018-05-17T21:56:04.797Z,17.73
2018-05-17T21:58:31.257Z,17.62
2018-05-17T22:00:57.966Z,17.60
2018-05-17T22:03:28.046Z,17.45
2018-05-17T22:05:54.595Z,17.16
2018-05-17T22:08:21.387Z,17.49
2018-05-17T22:10:48.357Z,16.87
2018-05-17T22:13:16.519Z,17.23
2018-05-17T22:15:43.237Z,17.10
2018-05-17T22:18:09.871Z,16.96
2018-05-17T22:20:36.565Z,16.86
2018-05-17T22:23:03.174Z,16.65
2018-05-17T22:25:31.430Z,17.14
2018-05-17T22:27:58.143Z,17.40
2018-05-17T22:30:24.698Z,17.41
2018-05-17T22:32:51.278Z,17.12
2018-05-17T22:35:23.369Z,17.17
2018-05-17T22:37:50.069Z,16.71
2018-05-17T22:40:16.643Z,17.16
2018-05-17T22:42:43.395Z,17.22
2018-05-17T22:45:10.729Z,17.21
2018-05-17T22:47:38.066Z,17.13
2018-05-17T22:50:04.684Z,17.05
2018-05-17T22:52:31.865Z,17.15
2018-05-17T22:54:58.565Z,17.27
2018-05-17T22:57:37.221Z,17.52
2018-05-17T23:00:03.673Z,17.24
2018-05-17T23:02:30.264Z,17.29
2018-05-17T23:04:57.779Z,17.14
2018-05-17T23:07:25.066Z,17.16
2018-05-17T23:09:51.720Z,16.87
2018-05-17T23:12:18.293Z,17.12
2018-05-17T23:14:48.758Z,16.80
2018-05-17T23:17:16.154Z,16.91
2018-05-17T23:19:42.970Z,16.97
2018-05-17T23:22:10.244Z,16.83
2018-05-17T23:24:40.186Z,16.89
2018-05-17T23:27:06.838Z,16.90
2018-05-17T23:29:33.553Z,16.90
2018-05-17T23:32:00.105Z,17.07
2018-05-17T23:34:33.239Z,17.22
2018-05-17T23:36:59.839Z,17.27
2018-05-17T23:39:26.505Z,16.89
2018-05-17T23:41:53.153Z,17.31
2018-05-17T23:44:20.378Z,17.51
2018-05-17T23:46:46.992Z,17.31
2018-05-17T23:49:13.705Z,17.17
2018-05-17T23:51:40.423Z,17.21
2018-05-17T23:54:08.449Z,17.08
2018-05-17T23:56:36.634Z,16.88
2018-05-17T23:59:03.260Z,16.83
